createdAt,value
2022-12-15T00:02:49.973Z,92.85
2022-12-15T00:05:58.799Z,89.57
2022-12-15T00:09:13.898Z,91.45
2022-12-15T00:12:23.012Z,91.95
2022-12-15T00:15:31.814Z,89.00
2022-12-15T00:18:40.568Z,90.35
2022-12-15T00:21:49.342Z,88.88
2022-12-15T00:24:58.126Z,90.47
2022-12-15T00:28:06.963Z,90.55
2022-12-15T00:31:17.480Z,96.00
2022-12-15T00:34:26.321Z,96.70
2022-12-15T00:37:35.046Z,98.43
2022-12-15T00:40:25.168Z,90.88
2022-12-15T00:43:15.124Z,89.07
2022-12-15T00:46:24.201Z,85.65
2022-12-15T00:49:33.052Z,104.50
2022-12-15T00:52:41.892Z,89.45
2022-12-15T00:55:50.633Z,98.55
2022-12-15T00:58:59.119Z,89.70
2022-12-15T01:02:07.849Z,96.03
2022-12-15T01:05:16.440Z,90.07
2022-12-15T01:08:25.218Z,91.15
2022-12-15T01:11:34.042Z,88.70
2022-12-15T01:14:43.436Z,92.97
2022-12-15T01:17:52.370Z,92.88
2022-12-15T01:20:42.701Z,90.45
2022-12-15T01:23:33.728Z,85.43
2022-12-15T01:26:24.517Z,94.20
2022-12-15T01:29:15.013Z,92.05
2022-12-15T01:32:05.144Z,92.50
2022-12-15T01:34:55.307Z,83.20
2022-12-15T01:37:45.380Z,90.25
2022-12-15T01:40:50.079Z,100.30
2022-12-15T01:43:40.883Z,85.45
2022-12-15T01:46:31.267Z,91.10
2022-12-15T01:49:25.283Z,89.72
2022-12-15T01:52:16.983Z,90.82
2022-12-15T01:55:07.514Z,88.00
2022-12-15T01:58:01.738Z,88.50
2022-12-15T02:00:52.108Z,91.22
2022-12-15T02:03:44.069Z,91.30
2022-12-15T02:06:35.893Z,85.90
2022-12-15T02:09:28.311Z,92.10
2022-12-15T02:12:41.851Z,90.50
2022-12-15T02:15:40.654Z,84.90
2022-12-15T02:18:46.309Z,88.05
2022-12-15T02:21:47.102Z,91.30
2022-12-15T02:25:05.622Z,91.80
2022-12-15T02:28:01.608Z,86.28
2022-12-15T02:31:16.069Z,90.68
2022-12-15T02:34:15.073Z,82.57
2022-12-15T02:37:15.397Z,87.20
2022-12-15T02:40:08.980Z,81.00
2022-12-15T02:43:03.694Z,83.35
2022-12-15T02:46:22.658Z,80.10
2022-12-15T02:49:35.895Z,71.82
2022-12-15T02:52:58.745Z,75.75
2022-12-15T02:56:00.469Z,79.05
2022-12-15T02:59:19.328Z,69.75
2022-12-15T03:02:10.852Z,85.32
2022-12-15T03:05:01.321Z,84.85
2022-12-15T03:07:52.902Z,75.60
2022-12-15T03:10:43.179Z,82.93
2022-12-15T03:13:33.515Z,77.70
2022-12-15T03:16:24.492Z,79.25
2022-12-15T03:19:14.804Z,78.78
2022-12-15T03:22:05.100Z,87.15
2022-12-15T03:24:55.246Z,80.70
2022-12-15T03:27:46.105Z,86.50
2022-12-15T03:30:36.167Z,76.82
2022-12-15T03:33:25.972Z,89.47
2022-12-15T03:36:15.755Z,78.20
2022-12-15T03:39:06.390Z,76.03
2022-12-15T03:41:56.526Z,85.50
2022-12-15T03:44:46.363Z,81.47
2022-12-15T03:47:40.934Z,76.00
2022-12-15T03:50:30.880Z,77.15
2022-12-15T03:53:20.836Z,80.07
2022-12-15T03:56:10.727Z,83.70
2022-12-15T03:59:00.698Z,92.00
2022-12-15T04:01:50.689Z,81.88
2022-12-15T04:04:41.113Z,81.15
2022-12-15T04:07:30.958Z,80.40
2022-12-15T04:10:21.442Z,78.22
2022-12-15T04:13:11.782Z,82.93
2022-12-15T04:16:02.888Z,75.20
2022-12-15T04:19:12.706Z,85.95
2022-12-15T04:22:03.647Z,79.50
2022-12-15T04:25:12.735Z,83.78
2022-12-15T04:28:21.912Z,91.43
2022-12-15T04:31:38.943Z,74.60
2022-12-15T04:34:48.269Z,78.05
2022-12-15T04:37:56.986Z,80.68
2022-12-15T04:41:05.714Z,89.05
2022-12-15T04:44:14.692Z,74.72
2022-12-15T04:47:23.298Z,77.18
2022-12-15T04:50:32.108Z,80.25
2022-12-15T04:53:40.648Z,84.75
2022-12-15T04:56:50.328Z,79.18
2022-12-15T04:59:59.283Z,75.65
2022-12-15T05:03:10.335Z,78.00
2022-12-15T05:06:20.914Z,77.47
2022-12-15T05:09:29.759Z,78.20
2022-12-15T05:12:38.557Z,76.22
2022-12-15T05:15:47.805Z,83.63
2022-12-15T05:18:56.363Z,81.53
2022-12-15T05:22:05.151Z,80.00
2022-12-15T05:25:13.761Z,81.20
2022-12-15T05:28:25.087Z,82.97
2022-12-15T05:31:33.870Z,79.57
2022-12-15T05:34:26.193Z,78.88
2022-12-15T05:37:16.244Z,75.75
2022-12-15T05:40:06.744Z,81.45
2022-12-15T05:43:00.478Z,78.25
2022-12-15T05:45:50.471Z,77.05
2022-12-15T05:48:41.738Z,77.57
2022-12-15T05:51:32.051Z,79.43
2022-12-15T05:54:22.831Z,83.03
2022-12-15T05:57:12.749Z,82.03
2022-12-15T06:00:05.403Z,78.88
2022-12-15T06:03:02.739Z,79.22
2022-12-15T06:05:56.415Z,77.80
2022-12-15T06:08:47.249Z,77.10
2022-12-15T06:11:40.207Z,80.00
2022-12-15T06:14:31.223Z,81.22
2022-12-15T06:17:21.243Z,82.15
2022-12-15T06:20:11.684Z,72.13
2022-12-15T06:23:01.957Z,75.57
2022-12-15T06:25:51.980Z,81.57
2022-12-15T06:28:42.322Z,78.65
2022-12-15T06:31:32.996Z,76.25
2022-12-15T06:34:23.191Z,76.03
2022-12-15T06:37:13.035Z,78.32
2022-12-15T06:40:03.551Z,75.97
2022-12-15T06:42:53.667Z,83.00
2022-12-15T06:45:49.802Z,77.38
2022-12-15T06:48:40.039Z,78.00
2022-12-15T06:51:30.254Z,88.63
2022-12-15T06:54:20.700Z,86.57
2022-12-15T06:57:10.963Z,93.53
2022-12-15T07:00:01.077Z,85.30
2022-12-15T07:02:51.733Z,85.07
2022-12-15T07:05:43.866Z,74.80
2022-12-15T07:08:40.957Z,77.40
2022-12-15T07:11:31.789Z,84.30
2022-12-15T07:14:23.084Z,74.97
2022-12-15T07:17:13.491Z,78.60
2022-12-15T07:20:07.159Z,82.40
2022-12-15T07:22:57.619Z,82.07
2022-12-15T07:25:47.805Z,81.75
2022-12-15T07:28:38.415Z,86.55
2022-12-15T07:31:30.218Z,79.70
2022-12-15T07:34:20.935Z,87.97
2022-12-15T07:37:11.013Z,85.40
2022-12-15T07:40:01.435Z,84.45
2022-12-15T07:42:51.577Z,82.55
2022-12-15T07:45:45.538Z,81.82
2022-12-15T07:48:38.474Z,80.82
2022-12-15T07:51:28.877Z,81.28
2022-12-15T07:54:19.345Z,91.25
2022-12-15T07:57:09.528Z,89.32
2022-12-15T07:59:59.890Z,85.80
2022-12-15T08:02:50.617Z,87.10
2022-12-15T08:05:41.300Z,81.00
2022-12-15T08:08:32.645Z,97.80
2022-12-15T08:11:24.552Z,86.07
2022-12-15T08:14:18.118Z,90.40
2022-12-15T08:17:08.791Z,90.82
2022-12-15T08:20:01.426Z,75.68
2022-12-15T08:22:53.615Z,89.38
2022-12-15T08:25:43.637Z,81.60
2022-12-15T08:28:35.133Z,78.88
2022-12-15T08:31:25.946Z,81.55
2022-12-15T08:34:16.452Z,82.63
2022-12-15T08:37:06.690Z,77.63
2022-12-15T08:39:57.058Z,73.88
2022-12-15T08:42:47.449Z,84.32
2022-12-15T08:45:40.325Z,90.57
2022-12-15T08:48:31.482Z,81.78
2022-12-15T08:51:23.880Z,84.00
2022-12-15T08:54:14.095Z,79.30
2022-12-15T08:57:05.298Z,81.22
2022-12-15T08:59:55.574Z,81.35
2022-12-15T09:02:45.605Z,81.18
2022-12-15T09:05:36.989Z,78.25
2022-12-15T09:08:27.157Z,77.13
2022-12-15T09:11:18.007Z,74.97
2022-12-15T09:14:08.141Z,71.55
2022-12-15T09:16:58.299Z,80.93
2022-12-15T09:19:48.813Z,70.93
2022-12-15T09:22:38.973Z,86.35
2022-12-15T09:25:29.935Z,79.20
2022-12-15T09:28:19.851Z,77.25
2022-12-15T09:31:16.371Z,134.63
2022-12-15T09:34:06.847Z,145.38
2022-12-15T09:36:57.166Z,123.10
2022-12-15T09:39:47.062Z,155.15
2022-12-15T09:42:36.906Z,206.80
2022-12-15T09:45:37.323Z,126.97
2022-12-15T09:48:39.905Z,188.88
2022-12-15T09:51:36.467Z,77.07
2022-12-15T09:54:31.252Z,77.47
2022-12-15T09:57:37.372Z,70.05
2022-12-15T10:00:45.621Z,72.95
2022-12-15T10:04:01.068Z,67.90
2022-12-15T10:07:08.606Z,66.93
2022-12-15T10:09:58.544Z,67.70
2022-12-15T10:13:00.122Z,66.00
2022-12-15T10:16:00.606Z,72.32
2022-12-15T10:19:09.074Z,67.10
2022-12-15T10:21:59.608Z,70.07
2022-12-15T10:28:10.847Z,69.30
2022-12-15T10:31:12.647Z,61.92
2022-12-15T10:34:22.588Z,67.65
2022-12-15T10:37:21.148Z,63.22
2022-12-15T10:40:18.252Z,63.55
2022-12-15T10:43:24.622Z,61.08
2022-12-15T10:46:24.255Z,68.68
2022-12-15T10:49:14.338Z,64.15
2022-12-15T10:52:04.748Z,59.97
2022-12-15T10:54:55.430Z,59.97
2022-12-15T10:57:59.830Z,59.35
2022-12-15T11:01:06.795Z,59.47
2022-12-15T11:03:57.722Z,62.40
2022-12-15T11:06:56.604Z,57.45
2022-12-15T11:09:48.139Z,63.22
2022-12-15T11:12:58.402Z,62.63
2022-12-15T11:16:02.904Z,55.08
2022-12-15T11:19:08.001Z,66.25
2022-12-15T11:22:09.164Z,67.43
2022-12-15T11:25:10.426Z,59.40
2022-12-15T11:28:03.642Z,57.47
2022-12-15T11:31:01.409Z,70.30
2022-12-15T11:33:54.221Z,59.78
2022-12-15T11:36:57.781Z,60.55
2022-12-15T11:40:19.935Z,59.55
2022-12-15T11:43:32.633Z,65.68
2022-12-15T11:46:43.419Z,73.10
2022-12-15T11:49:58.576Z,73.03
2022-12-15T11:53:09.839Z,81.88
2022-12-15T11:56:18.794Z,74.75
2022-12-15T11:59:25.754Z,62.47
2022-12-15T12:02:38.290Z,61.15
2022-12-15T12:06:05.188Z,65.45
2022-12-15T12:09:03.139Z,55.58
2022-12-15T12:12:29.939Z,65.05
2022-12-15T12:15:51.267Z,60.80
2022-12-15T12:18:50.722Z,54.33
2022-12-15T12:21:45.407Z,56.63
2022-12-15T12:24:45.152Z,58.97
2022-12-15T12:27:58.363Z,54.08
2022-12-15T12:30:50.408Z,54.00
2022-12-15T12:33:48.629Z,58.03
2022-12-15T12:36:41.931Z,57.88
2022-12-15T12:39:33.008Z,63.15
2022-12-15T12:42:35.692Z,75.28
2022-12-15T12:45:31.382Z,69.57
2022-12-15T12:48:30.437Z,69.20
2022-12-15T12:51:39.760Z,56.78
2022-12-15T12:54:33.501Z,65.00
2022-12-15T13:00:28.452Z,57.40
2022-12-15T13:03:20.933Z,61.97
2022-12-15T13:06:21.764Z,53.10
2022-12-15T13:09:17.971Z,74.93
2022-12-15T13:12:53.553Z,59.38
2022-12-15T13:16:01.610Z,56.08
2022-12-15T13:19:04.587Z,58.63
2022-12-15T13:21:55.760Z,53.90
2022-12-15T13:24:50.547Z,58.08
2022-12-15T13:27:41.180Z,56.55
2022-12-15T13:30:31.167Z,57.97
2022-12-15T13:33:22.379Z,60.78
2022-12-15T13:36:12.220Z,58.25
2022-12-15T13:39:04.455Z,55.95
2022-12-15T13:45:21.845Z,62.45
2022-12-15T13:48:25.944Z,58.00
2022-12-15T13:51:42.289Z,60.90
2022-12-15T13:54:40.071Z,55.60
2022-12-15T13:57:34.388Z,49.83
2022-12-15T14:00:24.610Z,59.60
2022-12-15T14:03:14.816Z,56.35
2022-12-15T14:06:13.481Z,54.10
2022-12-15T14:09:05.200Z,53.33
2022-12-15T14:11:56.718Z,50.70
2022-12-15T14:14:49.343Z,51.22
2022-12-15T14:17:39.475Z,52.78
2022-12-15T14:20:32.391Z,48.42
2022-12-15T14:23:25.979Z,51.97
2022-12-15T14:26:16.807Z,48.58
2022-12-15T14:29:07.022Z,61.75
2022-12-15T14:31:58.184Z,67.20
2022-12-15T14:34:50.917Z,68.78
2022-12-15T14:37:41.432Z,54.85
2022-12-15T14:40:35.791Z,50.97
2022-12-15T14:43:35.011Z,52.17
2022-12-15T14:46:27.401Z,53.58
2022-12-15T14:49:21.619Z,58.65
2022-12-15T14:55:29.941Z,56.35
2022-12-15T14:58:26.457Z,64.07
2022-12-15T15:01:41.709Z,56.53
2022-12-15T15:04:34.077Z,79.60
2022-12-15T15:07:24.172Z,51.17
2022-12-15T15:10:24.211Z,46.40
2022-12-15T15:13:19.041Z,62.20
2022-12-15T15:16:16.554Z,48.15
2022-12-15T15:19:07.239Z,46.28
2022-12-15T15:22:00.731Z,54.17
2022-12-15T15:27:41.552Z,52.22
2022-12-15T15:30:41.862Z,60.67
2022-12-15T15:33:32.608Z,53.10
2022-12-15T15:36:24.981Z,57.00
2022-12-15T15:39:16.002Z,62.95
2022-12-15T15:42:15.410Z,59.88
2022-12-15T15:45:13.555Z,62.63
2022-12-15T15:48:03.773Z,61.20
2022-12-15T15:50:54.384Z,59.95
2022-12-15T15:53:45.290Z,58.42
2022-12-15T15:56:35.220Z,58.30
2022-12-15T15:59:26.760Z,64.30
2022-12-15T16:02:17.294Z,64.63
2022-12-15T16:05:07.947Z,59.00
2022-12-15T16:07:58.693Z,60.70
2022-12-15T16:10:49.315Z,70.15
2022-12-15T16:13:40.189Z,73.15
2022-12-15T16:16:32.933Z,71.30
2022-12-15T16:19:23.973Z,79.30
2022-12-15T16:22:20.532Z,72.60
2022-12-15T16:25:17.305Z,65.03
2022-12-15T16:28:19.298Z,68.85
2022-12-15T16:31:29.022Z,66.75
2022-12-15T16:34:20.470Z,70.95
2022-12-15T16:37:25.119Z,56.67
2022-12-15T16:40:24.387Z,60.80
2022-12-15T16:43:17.138Z,55.72
2022-12-15T16:46:11.757Z,68.32
2022-12-15T16:49:02.069Z,64.75
2022-12-15T16:51:54.056Z,59.97
2022-12-15T16:54:47.935Z,67.20
2022-12-15T16:57:38.631Z,80.35
2022-12-15T17:00:32.366Z,64.82
2022-12-15T17:03:25.890Z,85.15
2022-12-15T17:06:17.569Z,71.53
2022-12-15T17:09:18.760Z,63.97
2022-12-15T17:12:15.111Z,61.85
2022-12-15T17:15:17.253Z,63.78
2022-12-15T17:18:07.748Z,62.53
2022-12-15T17:21:13.478Z,59.72
2022-12-15T17:24:11.872Z,64.05
2022-12-15T17:27:02.309Z,66.85
2022-12-15T17:29:52.792Z,65.10
2022-12-15T17:32:44.503Z,62.50
2022-12-15T17:35:34.847Z,62.45
2022-12-15T17:38:25.386Z,61.60
2022-12-15T17:41:35.138Z,58.75
2022-12-15T17:44:33.742Z,62.70
2022-12-15T17:47:31.997Z,59.85
2022-12-15T17:50:50.104Z,56.72
2022-12-15T17:53:41.252Z,60.15
2022-12-15T17:56:32.079Z,59.03
2022-12-15T17:59:22.810Z,62.53
2022-12-15T18:02:14.480Z,65.97
2022-12-15T18:05:05.794Z,63.42
2022-12-15T18:07:58.560Z,55.17
2022-12-15T18:10:54.064Z,55.80
2022-12-15T18:13:49.057Z,60.15
2022-12-15T18:16:39.391Z,61.35
2022-12-15T18:19:50.065Z,67.00
2022-12-15T18:22:56.510Z,60.83
2022-12-15T18:25:46.641Z,64.03
2022-12-15T18:28:44.272Z,63.20
2022-12-15T18:31:35.052Z,68.50
2022-12-15T18:34:25.129Z,64.85
2022-12-15T18:37:17.418Z,61.15
2022-12-15T18:40:29.893Z,61.20
2022-12-15T18:43:29.924Z,66.53
2022-12-15T18:46:20.391Z,67.25
2022-12-15T18:49:12.200Z,62.90
2022-12-15T18:52:02.203Z,64.40
2022-12-15T18:54:54.154Z,65.38
2022-12-15T18:57:44.627Z,66.03
2022-12-15T19:00:35.123Z,62.63
2022-12-15T19:03:26.509Z,62.90
2022-12-15T19:06:26.223Z,61.17
2022-12-15T19:09:20.399Z,66.82
2022-12-15T19:15:19.287Z,59.30
2022-12-15T19:18:36.513Z,64.63
2022-12-15T19:21:44.299Z,66.43
2022-12-15T19:24:53.079Z,50.22
2022-12-15T19:27:43.420Z,58.45
2022-12-15T19:30:38.527Z,63.03
2022-12-15T19:33:32.438Z,65.38
2022-12-15T19:36:24.289Z,64.22
2022-12-15T19:39:24.443Z,65.13
2022-12-15T19:42:19.673Z,62.75
2022-12-15T19:45:22.460Z,63.03
2022-12-15T19:48:13.164Z,64.07
2022-12-15T19:51:03.507Z,53.78
2022-12-15T19:53:54.039Z,60.88
2022-12-15T19:56:44.657Z,60.67
2022-12-15T19:59:34.873Z,65.70
2022-12-15T20:02:26.488Z,58.28
2022-12-15T20:05:26.358Z,64.50
2022-12-15T20:08:24.714Z,61.70
2022-12-15T20:11:21.509Z,58.97
2022-12-15T20:14:17.371Z,72.22
2022-12-15T20:17:07.892Z,62.17
2022-12-15T20:19:58.019Z,59.60
2022-12-15T20:22:52.064Z,62.47
2022-12-15T20:25:42.843Z,63.55
2022-12-15T20:28:33.153Z,58.83
2022-12-15T20:31:25.318Z,67.85
2022-12-15T20:34:15.575Z,59.67
2022-12-15T20:37:17.571Z,63.55
2022-12-15T20:40:20.466Z,62.42
2022-12-15T20:43:17.312Z,58.80
2022-12-15T20:46:16.284Z,66.18
2022-12-15T20:49:18.495Z,63.05
2022-12-15T20:52:19.558Z,63.65
2022-12-15T20:55:14.453Z,60.45
2022-12-15T20:58:05.911Z,61.80
2022-12-15T21:00:55.961Z,58.30
2022-12-15T21:03:47.731Z,64.93
2022-12-15T21:06:37.807Z,64.93
2022-12-15T21:09:28.023Z,59.17
2022-12-15T21:12:20.888Z,65.30
2022-12-15T21:15:22.448Z,48.10
2022-12-15T21:18:57.273Z,63.08
2022-12-15T21:21:31.177Z,56.85
2022-12-15T21:24:24.923Z,55.65
2022-12-15T21:27:15.413Z,61.20
2022-12-15T21:30:14.730Z,56.92
2022-12-15T21:33:05.601Z,57.22
2022-12-15T21:35:55.859Z,64.47
2022-12-15T21:38:48.882Z,60.33
2022-12-15T21:41:42.842Z,62.45
2022-12-15T21:44:32.770Z,59.60
2022-12-15T21:47:24.507Z,65.53
2022-12-15T21:50:16.252Z,71.47
2022-12-15T21:53:06.994Z,69.05
2022-12-15T21:56:00.084Z,63.42
2022-12-15T21:58:52.456Z,51.63
2022-12-15T22:01:45.884Z,67.10
2022-12-15T22:04:36.303Z,72.40
2022-12-15T22:07:26.247Z,67.78
2022-12-15T22:10:16.433Z,66.15
2022-12-15T22:13:06.448Z,64.97
2022-12-15T22:15:56.508Z,71.75
2022-12-15T22:18:51.070Z,66.05
2022-12-15T22:21:42.273Z,71.60
2022-12-15T22:24:32.313Z,68.47
2022-12-15T22:27:22.878Z,67.90
2022-12-15T22:30:33.231Z,68.55
2022-12-15T22:33:25.609Z,65.18
2022-12-15T22:36:15.582Z,69.97
2022-12-15T22:39:10.675Z,66.40
2022-12-15T22:42:01.807Z,66.38
2022-12-15T22:44:52.095Z,68.72
2022-12-15T22:47:42.890Z,70.57
2022-12-15T22:50:32.775Z,64.45
2022-12-15T22:53:24.310Z,64.50
2022-12-15T22:56:30.607Z,65.88
2022-12-15T22:59:28.172Z,64.55
2022-12-15T23:02:18.093Z,66.93
2022-12-15T23:05:09.296Z,67.30
2022-12-15T23:07:59.261Z,63.08
2022-12-15T23:11:08.073Z,66.95
2022-12-15T23:13:58.105Z,69.80
2022-12-15T23:16:48.031Z,63.17
2022-12-15T23:19:37.944Z,72.57
2022-12-15T23:22:27.928Z,72.70
2022-12-15T23:25:17.701Z,69.03
2022-12-15T23:28:07.974Z,75.35
2022-12-15T23:30:58.656Z,76.78
2022-12-15T23:33:49.941Z,74.97
2022-12-15T23:36:42.512Z,72.97
2022-12-15T23:39:32.301Z,75.75
2022-12-15T23:42:22.068Z,69.10
2022-12-15T23:45:12.086Z,72.13
2022-12-15T23:48:02.164Z,72.38
2022-12-15T23:50:52.168Z,67.63
2022-12-15T23:53:44.211Z,66.85
2022-12-15T23:56:34.050Z,72.53
2022-12-15T23:59:23.945Z,75.55
